sensor_id;sensor_type;location;lat;lon;timestamp;pressure;altitude;pressure_sealevel;temperature;humidity
19843;BME280;10082;51.038;6.992;2022-12-29T00:02:01;112171.53;;;-144.33;100.00
19843;BME280;10082;51.038;6.992;2022-12-29T00:04:29;112171.53;;;-144.33;100.00
19843;BME280;10082;51.038;6.992;2022-12-29T00:06:57;112171.53;;;-144.33;100.00
19843;BME280;10082;51.038;6.992;2022-12-29T00:09:25;112171.53;;;-144.33;100.00
19843;BME280;10082;51.038;6.992;2022-12-29T00:11:53;112171.53;;;-144.33;100.00
19843;BME280;10082;51.038;6.992;2022-12-29T00:14:20;112171.53;;;-144.33;100.00
19843;BME280;10082;51.038;6.992;2022-12-29T00:17:04;112171.53;;;-144.33;100.00
19843;BME280;10082;51.038;6.992;2022-12-29T00:19:33;112171.53;;;-144.33;100.00
19843;BME280;10082;51.038;6.992;2022-12-29T00:22:17;112171.53;;;-144.33;100.00
19843;BME280;10082;51.038;6.992;2022-12-29T00:25:02;112171.53;;;-144.33;100.00
19843;BME280;10082;51.038;6.992;2022-12-29T00:27:46;112171.53;;;-144.33;100.00
19843;BME280;10082;51.038;6.992;2022-12-29T00:30:31;112171.53;;;-144.33;100.00
19843;BME280;10082;51.038;6.992;2022-12-29T00:33:16;112171.53;;;-144.33;100.00
19843;BME280;10082;51.038;6.992;2022-12-29T00:36:06;112171.53;;;-144.33;100.00
19843;BME280;10082;51.038;6.992;2022-12-29T00:38:39;112171.53;;;-144.33;100.00
19843;BME280;10082;51.038;6.992;2022-12-29T00:41:26;112171.53;;;-144.33;100.00
19843;BME280;10082;51.038;6.992;2022-12-29T00:44:12;112171.53;;;-144.33;100.00
19843;BME280;10082;51.038;6.992;2022-12-29T00:46:40;112171.53;;;-144.33;100.00
19843;BME280;10082;51.038;6.992;2022-12-29T00:49:09;112171.53;;;-144.33;100.00
19843;BME280;10082;51.038;6.992;2022-12-29T00:51:56;112171.53;;;-144.33;100.00
19843;BME280;10082;51.038;6.992;2022-12-29T00:54:24;112171.53;;;-144.33;100.00
19843;BME280;10082;51.038;6.992;2022-12-29T00:56:52;112171.53;;;-144.33;100.00
19843;BME280;10082;51.038;6.992;2022-12-29T00:59:20;112171.53;;;-144.33;100.00
19843;BME280;10082;51.038;6.992;2022-12-29T01:01:49;112171.53;;;-144.33;100.00
19843;BME280;10082;51.038;6.992;2022-12-29T01:04:16;112171.53;;;-144.33;100.00
19843;BME280;10082;51.038;6.992;2022-12-29T01:06:44;112171.53;;;-144.33;100.00
19843;BME280;10082;51.038;6.992;2022-12-29T01:09:13;112171.53;;;-144.33;100.00
19843;BME280;10082;51.038;6.992;2022-12-29T01:11:57;112171.53;;;-144.33;100.00
19843;BME280;10082;51.038;6.992;2022-12-29T01:14:25;112171.53;;;-144.33;100.00
19843;BME280;10082;51.038;6.992;2022-12-29T01:16:53;112171.53;;;-144.33;100.00
19843;BME280;10082;51.038;6.992;2022-12-29T01:19:20;112171.53;;;-144.33;100.00
19843;BME280;10082;51.038;6.992;2022-12-29T01:21:48;112171.53;;;-144.33;100.00
19843;BME280;10082;51.038;6.992;2022-12-29T01:24:18;112171.53;;;-144.33;100.00
19843;BME280;10082;51.038;6.992;2022-12-29T01:26:46;112171.53;;;-144.33;100.00
19843;BME280;10082;51.038;6.992;2022-12-29T01:29:15;112171.53;;;-144.33;100.00
19843;BME280;10082;51.038;6.992;2022-12-29T01:31:44;112171.53;;;-144.33;100.00
19843;BME280;10082;51.038;6.992;2022-12-29T01:34:12;112171.53;;;-144.33;100.00
19843;BME280;10082;51.038;6.992;2022-12-29T01:36:39;112171.53;;;-144.33;100.00
19843;BME280;10082;51.038;6.992;2022-12-29T01:39:05;112171.53;;;-144.33;100.00
19843;BME280;10082;51.038;6.992;2022-12-29T01:41:34;112171.53;;;-144.33;100.00
19843;BME280;10082;51.038;6.992;2022-12-29T01:44:02;112171.53;;;-144.33;100.00
19843;BME280;10082;51.038;6.992;2022-12-29T01:46:32;112171.53;;;-144.33;100.00
19843;BME280;10082;51.038;6.992;2022-12-29T01:49:05;112171.53;;;-144.33;100.00
19843;BME280;10082;51.038;6.992;2022-12-29T01:51:41;112171.53;;;-144.33;100.00
19843;BME280;10082;51.038;6.992;2022-12-29T01:54:12;112171.53;;;-144.33;100.00
19843;BME280;10082;51.038;6.992;2022-12-29T01:56:43;112171.53;;;-144.33;100.00
19843;BME280;10082;51.038;6.992;2022-12-29T01:59:16;112171.53;;;-144.33;100.00
19843;BME280;10082;51.038;6.992;2022-12-29T02:01:45;112171.53;;;-144.33;100.00
19843;BME280;10082;51.038;6.992;2022-12-29T02:04:13;112171.53;;;-144.33;100.00
19843;BME280;10082;51.038;6.992;2022-12-29T02:06:43;112171.53;;;-144.33;100.00
19843;BME280;10082;51.038;6.992;2022-12-29T02:09:12;112171.53;;;-144.33;100.00
19843;BME280;10082;51.038;6.992;2022-12-29T02:11:39;112171.53;;;-144.33;100.00
19843;BME280;10082;51.038;6.992;2022-12-29T02:14:10;112171.53;;;-144.33;100.00
19843;BME280;10082;51.038;6.992;2022-12-29T02:16:49;112171.53;;;-144.33;100.00
19843;BME280;10082;51.038;6.992;2022-12-29T02:19:41;112171.53;;;-144.33;100.00
19843;BME280;10082;51.038;6.992;2022-12-29T02:22:22;112171.53;;;-144.33;100.00
19843;BME280;10082;51.038;6.992;2022-12-29T02:25:25;112171.53;;;-144.33;100.00
19843;BME280;10082;51.038;6.992;2022-12-29T02:31:04;112171.53;;;-144.33;100.00
19843;BME280;10082;51.038;6.992;2022-12-29T02:33:41;112171.53;;;-144.33;100.00
19843;BME280;10082;51.038;6.992;2022-12-29T02:36:16;112171.53;;;-144.33;100.00
19843;BME280;10082;51.038;6.992;2022-12-29T02:38:52;112171.53;;;-144.33;100.00
19843;BME280;10082;51.038;6.992;2022-12-29T02:41:30;112171.53;;;-144.33;100.00
19843;BME280;10082;51.038;6.992;2022-12-29T02:44:02;112171.53;;;-144.33;100.00
19843;BME280;10082;51.038;6.992;2022-12-29T02:46:36;112171.53;;;-144.33;100.00
19843;BME280;10082;51.038;6.992;2022-12-29T02:49:10;112171.53;;;-144.33;100.00
19843;BME280;10082;51.038;6.992;2022-12-29T02:51:48;112171.53;;;-144.33;100.00
19843;BME280;10082;51.038;6.992;2022-12-29T02:54:17;112171.53;;;-144.33;100.00
19843;BME280;10082;51.038;6.992;2022-12-29T02:57:26;112171.53;;;-144.33;100.00
19843;BME280;10082;51.038;6.992;2022-12-29T02:59:57;112171.53;;;-144.33;100.00
19843;BME280;10082;51.038;6.992;2022-12-29T03:02:44;112171.53;;;-144.33;100.00
19843;BME280;10082;51.038;6.992;2022-12-29T03:05:22;112171.53;;;-144.33;100.00
19843;BME280;10082;51.038;6.992;2022-12-29T03:08:04;112171.53;;;-144.33;100.00
19843;BME280;10082;51.038;6.992;2022-12-29T03:10:38;112171.53;;;-144.33;100.00
19843;BME280;10082;51.038;6.992;2022-12-29T03:13:15;112171.53;;;-144.33;100.00
19843;BME280;10082;51.038;6.992;2022-12-29T03:16:12;112171.53;;;-144.33;100.00
19843;BME280;10082;51.038;6.992;2022-12-29T03:18:47;112171.53;;;-144.33;100.00
19843;BME280;10082;51.038;6.992;2022-12-29T03:21:24;112171.53;;;-144.33;100.00
19843;BME280;10082;51.038;6.992;2022-12-29T03:24:18;112171.53;;;-144.33;100.00
19843;BME280;10082;51.038;6.992;2022-12-29T03:26:47;112171.53;;;-144.33;100.00
19843;BME280;10082;51.038;6.992;2022-12-29T03:29:18;112171.53;;;-144.33;100.00
19843;BME280;10082;51.038;6.992;2022-12-29T03:31:48;112171.53;;;-144.33;100.00
19843;BME280;10082;51.038;6.992;2022-12-29T03:34:20;112171.53;;;-144.33;100.00
19843;BME280;10082;51.038;6.992;2022-12-29T03:36:50;112171.53;;;-144.33;100.00
19843;BME280;10082;51.038;6.992;2022-12-29T03:39:21;112171.53;;;-144.33;100.00
19843;BME280;10082;51.038;6.992;2022-12-29T03:41:52;112171.53;;;-144.33;100.00
19843;BME280;10082;51.038;6.992;2022-12-29T03:44:32;112171.53;;;-144.33;100.00
19843;BME280;10082;51.038;6.992;2022-12-29T03:47:00;112171.53;;;-144.33;100.00
19843;BME280;10082;51.038;6.992;2022-12-29T03:49:28;112171.53;;;-144.33;100.00
19843;BME280;10082;51.038;6.992;2022-12-29T03:51:56;112171.53;;;-144.33;100.00
19843;BME280;10082;51.038;6.992;2022-12-29T03:54:23;112171.53;;;-144.33;100.00
19843;BME280;10082;51.038;6.992;2022-12-29T03:56:52;112171.53;;;-144.33;100.00
19843;BME280;10082;51.038;6.992;2022-12-29T03:59:30;112171.53;;;-144.33;100.00
19843;BME280;10082;51.038;6.992;2022-12-29T04:01:57;112171.53;;;-144.33;100.00
19843;BME280;10082;51.038;6.992;2022-12-29T04:04:24;112171.53;;;-144.33;100.00
19843;BME280;10082;51.038;6.992;2022-12-29T04:06:52;112171.53;;;-144.33;100.00
19843;BME280;10082;51.038;6.992;2022-12-29T04:09:19;112171.53;;;-144.33;100.00
19843;BME280;10082;51.038;6.992;2022-12-29T04:11:48;112171.53;;;-144.33;100.00
19843;BME280;10082;51.038;6.992;2022-12-29T04:14:16;112171.53;;;-144.33;100.00
19843;BME280;10082;51.038;6.992;2022-12-29T04:16:43;112171.53;;;-144.33;100.00
19843;BME280;10082;51.038;6.992;2022-12-29T04:19:10;112171.53;;;-144.33;100.00
19843;BME280;10082;51.038;6.992;2022-12-29T04:21:37;112171.53;;;-144.33;100.00
19843;BME280;10082;51.038;6.992;2022-12-29T04:24:08;112171.53;;;-144.33;100.00
19843;BME280;10082;51.038;6.992;2022-12-29T04:26:39;112171.53;;;-144.33;100.00
19843;BME280;10082;51.038;6.992;2022-12-29T04:29:31;112171.53;;;-144.33;100.00
19843;BME280;10082;51.038;6.992;2022-12-29T04:32:06;112171.53;;;-144.33;100.00
19843;BME280;10082;51.038;6.992;2022-12-29T04:34:38;112171.53;;;-144.33;100.00
19843;BME280;10082;51.038;6.992;2022-12-29T04:37:05;112171.53;;;-144.33;100.00
19843;BME280;10082;51.038;6.992;2022-12-29T04:39:33;112171.53;;;-144.33;100.00
19843;BME280;10082;51.038;6.992;2022-12-29T04:42:01;112171.53;;;-144.33;100.00
19843;BME280;10082;51.038;6.992;2022-12-29T04:44:29;112171.53;;;-144.33;100.00
19843;BME280;10082;51.038;6.992;2022-12-29T04:47:29;112171.53;;;-144.33;100.00
19843;BME280;10082;51.038;6.992;2022-12-29T04:50:07;112171.53;;;-144.33;100.00
19843;BME280;10082;51.038;6.992;2022-12-29T04:52:40;112171.53;;;-144.33;100.00
19843;BME280;10082;51.038;6.992;2022-12-29T04:55:11;112171.53;;;-144.33;100.00
19843;BME280;10082;51.038;6.992;2022-12-29T04:57:40;112171.53;;;-144.33;100.00
19843;BME280;10082;51.038;6.992;2022-12-29T05:00:09;112171.53;;;-144.33;100.00
19843;BME280;10082;51.038;6.992;2022-12-29T05:02:36;112171.53;;;-144.33;100.00
19843;BME280;10082;51.038;6.992;2022-12-29T05:05:04;112171.53;;;-144.33;100.00
19843;BME280;10082;51.038;6.992;2022-12-29T05:07:34;112171.53;;;-144.33;100.00
19843;BME280;10082;51.038;6.992;2022-12-29T05:10:01;112171.53;;;-144.33;100.00
19843;BME280;10082;51.038;6.992;2022-12-29T05:12:31;112171.53;;;-144.33;100.00
19843;BME280;10082;51.038;6.992;2022-12-29T05:15:00;112171.53;;;-144.33;100.00
19843;BME280;10082;51.038;6.992;2022-12-29T05:17:28;112171.53;;;-144.33;100.00
19843;BME280;10082;51.038;6.992;2022-12-29T05:19:55;111934.03;;;-144.33;100.00
19843;BME280;10082;51.038;6.992;2022-12-29T05:22:23;111064.56;;;-144.33;100.00
19843;BME280;10082;51.038;6.992;2022-12-29T05:24:51;110583.59;;;-144.33;100.00
19843;BME280;10082;51.038;6.992;2022-12-29T05:27:18;111056.50;;;-144.33;100.00
19843;BME280;10082;51.038;6.992;2022-12-29T05:29:52;110515.19;;;-144.33;100.00
19843;BME280;10082;51.038;6.992;2022-12-29T05:32:20;110555.44;;;-144.33;100.00
19843;BME280;10082;51.038;6.992;2022-12-29T05:34:47;110487.03;;;-144.33;100.00
19843;BME280;10082;51.038;6.992;2022-12-29T05:37:14;110197.28;;;-144.33;100.00
19843;BME280;10082;51.038;6.992;2022-12-29T05:39:41;110374.34;;;-144.33;100.00
19843;BME280;10082;51.038;6.992;2022-12-29T05:42:08;111070.59;;;-144.33;100.00
19843;BME280;10082;51.038;6.992;2022-12-29T05:44:47;111448.94;;;-144.33;100.00
19843;BME280;10082;51.038;6.992;2022-12-29T05:47:45;112171.53;;;-144.33;100.00
19843;BME280;10082;51.038;6.992;2022-12-29T05:50:27;112171.53;;;-144.33;100.00
19843;BME280;10082;51.038;6.992;2022-12-29T05:53:14;112171.53;;;-144.33;100.00
19843;BME280;10082;51.038;6.992;2022-12-29T05:55:42;112171.53;;;-144.33;100.00
19843;BME280;10082;51.038;6.992;2022-12-29T05:58:10;112171.53;;;-144.33;100.00
19843;BME280;10082;51.038;6.992;2022-12-29T06:00:37;112171.53;;;-144.33;100.00
19843;BME280;10082;51.038;6.992;2022-12-29T06:03:06;112171.53;;;-144.33;100.00
19843;BME280;10082;51.038;6.992;2022-12-29T06:05:33;112171.53;;;-144.33;100.00
19843;BME280;10082;51.038;6.992;2022-12-29T06:08:00;112171.53;;;-144.33;100.00
19843;BME280;10082;51.038;6.992;2022-12-29T06:10:27;112171.53;;;-144.33;100.00
19843;BME280;10082;51.038;6.992;2022-12-29T06:13:02;112171.53;;;-144.33;100.00
19843;BME280;10082;51.038;6.992;2022-12-29T06:15:30;112171.53;;;-144.33;100.00
19843;BME280;10082;51.038;6.992;2022-12-29T06:17:58;112171.53;;;-144.33;100.00
19843;BME280;10082;51.038;6.992;2022-12-29T06:20:27;112171.53;;;-144.33;100.00
19843;BME280;10082;51.038;6.992;2022-12-29T06:22:54;112171.53;;;-144.33;100.00
19843;BME280;10082;51.038;6.992;2022-12-29T06:25:22;112171.53;;;-144.33;100.00
19843;BME280;10082;51.038;6.992;2022-12-29T06:27:49;112171.53;;;-144.33;100.00
19843;BME280;10082;51.038;6.992;2022-12-29T06:30:16;112171.53;;;-144.33;100.00
19843;BME280;10082;51.038;6.992;2022-12-29T06:32:44;112171.53;;;-144.33;100.00
19843;BME280;10082;51.038;6.992;2022-12-29T06:35:12;112171.53;;;-144.33;100.00
19843;BME280;10082;51.038;6.992;2022-12-29T06:37:45;112171.53;;;-144.33;100.00
19843;BME280;10082;51.038;6.992;2022-12-29T06:40:12;112171.53;;;-144.33;100.00
19843;BME280;10082;51.038;6.992;2022-12-29T06:43:03;112171.53;;;-144.33;100.00
19843;BME280;10082;51.038;6.992;2022-12-29T06:45:55;112171.53;;;-144.33;100.00
19843;BME280;10082;51.038;6.992;2022-12-29T06:48:22;112171.53;;;-144.33;100.00
19843;BME280;10082;51.038;6.992;2022-12-29T06:50:49;112171.53;;;-144.33;100.00
19843;BME280;10082;51.038;6.992;2022-12-29T06:53:18;112171.53;;;-144.33;100.00
19843;BME280;10082;51.038;6.992;2022-12-29T06:55:45;112171.53;;;-144.33;100.00
19843;BME280;10082;51.038;6.992;2022-12-29T06:58:12;112171.53;;;-144.33;100.00
19843;BME280;10082;51.038;6.992;2022-12-29T07:00:39;112171.53;;;-144.33;100.00
19843;BME280;10082;51.038;6.992;2022-12-29T07:03:06;112171.53;;;-144.33;100.00
19843;BME280;10082;51.038;6.992;2022-12-29T07:05:33;112171.53;;;-144.33;100.00
19843;BME280;10082;51.038;6.992;2022-12-29T07:08:00;112171.53;;;-144.33;100.00
19843;BME280;10082;51.038;6.992;2022-12-29T07:10:29;112171.53;;;-144.33;100.00
19843;BME280;10082;51.038;6.992;2022-12-29T07:12:56;112171.53;;;-144.33;100.00
19843;BME280;10082;51.038;6.992;2022-12-29T07:15:23;112171.53;;;-144.33;100.00
19843;BME280;10082;51.038;6.992;2022-12-29T07:17:50;112171.53;;;-144.33;100.00
19843;BME280;10082;51.038;6.992;2022-12-29T07:20:17;112171.53;;;-144.33;100.00
19843;BME280;10082;51.038;6.992;2022-12-29T07:22:50;112171.53;;;-144.33;100.00
19843;BME280;10082;51.038;6.992;2022-12-29T07:25:17;112171.53;;;-144.33;100.00
19843;BME280;10082;51.038;6.992;2022-12-29T07:27:45;112171.53;;;-144.33;100.00
19843;BME280;10082;51.038;6.992;2022-12-29T07:30:13;112171.53;;;-144.33;100.00
19843;BME280;10082;51.038;6.992;2022-12-29T07:32:40;112171.53;;;-144.33;100.00
19843;BME280;10082;51.038;6.992;2022-12-29T07:35:07;112171.53;;;-144.33;100.00
19843;BME280;10082;51.038;6.992;2022-12-29T07:37:34;112171.53;;;-144.33;100.00
19843;BME280;10082;51.038;6.992;2022-12-29T07:40:01;112171.53;;;-144.33;100.00
19843;BME280;10082;51.038;6.992;2022-12-29T07:42:28;112171.53;;;-144.33;100.00
19843;BME280;10082;51.038;6.992;2022-12-29T07:44:59;112171.53;;;-144.33;100.00
19843;BME280;10082;51.038;6.992;2022-12-29T07:47:32;112171.53;;;-144.33;100.00
19843;BME280;10082;51.038;6.992;2022-12-29T07:50:00;112171.53;;;-144.33;100.00
19843;BME280;10082;51.038;6.992;2022-12-29T07:52:27;112171.53;;;-144.33;100.00
19843;BME280;10082;51.038;6.992;2022-12-29T07:54:54;112171.53;;;-144.33;100.00
19843;BME280;10082;51.038;6.992;2022-12-29T07:57:21;112171.53;;;-144.33;100.00
19843;BME280;10082;51.038;6.992;2022-12-29T07:59:48;112171.53;;;-144.33;100.00
19843;BME280;10082;51.038;6.992;2022-12-29T08:02:17;112171.53;;;-144.33;100.00
19843;BME280;10082;51.038;6.992;2022-12-29T08:04:44;112171.53;;;-144.33;100.00
19843;BME280;10082;51.038;6.992;2022-12-29T08:07:11;112171.53;;;-144.33;100.00
19843;BME280;10082;51.038;6.992;2022-12-29T08:09:38;112171.53;;;-144.33;100.00
19843;BME280;10082;51.038;6.992;2022-12-29T08:12:07;112171.53;;;-144.33;100.00
19843;BME280;10082;51.038;6.992;2022-12-29T08:14:35;112171.53;;;-144.33;100.00
19843;BME280;10082;51.038;6.992;2022-12-29T08:17:02;112171.53;;;-144.33;100.00
19843;BME280;10082;51.038;6.992;2022-12-29T08:19:30;112171.53;;;-144.33;100.00
19843;BME280;10082;51.038;6.992;2022-12-29T08:21:57;112171.53;;;-144.33;100.00
19843;BME280;10082;51.038;6.992;2022-12-29T08:24:25;112171.53;;;-144.33;100.00
19843;BME280;10082;51.038;6.992;2022-12-29T08:26:51;112171.53;;;-144.33;100.00
19843;BME280;10082;51.038;6.992;2022-12-29T08:29:18;112171.53;;;-144.33;100.00
19843;BME280;10082;51.038;6.992;2022-12-29T08:31:46;112171.53;;;-144.33;100.00
19843;BME280;10082;51.038;6.992;2022-12-29T08:34:14;112171.53;;;-144.33;100.00
19843;BME280;10082;51.038;6.992;2022-12-29T08:36:42;112171.53;;;-144.33;100.00
19843;BME280;10082;51.038;6.992;2022-12-29T08:39:09;112171.53;;;-144.33;100.00
19843;BME280;10082;51.038;6.992;2022-12-29T08:41:36;112171.53;;;-144.33;100.00
19843;BME280;10082;51.038;6.992;2022-12-29T08:44:04;112171.53;;;-144.33;100.00
19843;BME280;10082;51.038;6.992;2022-12-29T08:46:31;112171.53;;;-144.33;100.00
19843;BME280;10082;51.038;6.992;2022-12-29T08:48:58;112171.53;;;-144.33;100.00
19843;BME280;10082;51.038;6.992;2022-12-29T08:51:25;112171.53;;;-144.33;100.00
19843;BME280;10082;51.038;6.992;2022-12-29T08:53:53;112171.53;;;-144.33;100.00
19843;BME280;10082;51.038;6.992;2022-12-29T08:56:21;112171.53;;;-144.33;100.00
19843;BME280;10082;51.038;6.992;2022-12-29T08:58:52;112171.53;;;-144.33;100.00
19843;BME280;10082;51.038;6.992;2022-12-29T09:01:20;112171.53;;;-144.33;100.00
19843;BME280;10082;51.038;6.992;2022-12-29T09:03:48;112171.53;;;-144.33;100.00
19843;BME280;10082;51.038;6.992;2022-12-29T09:06:18;112171.53;;;-144.33;100.00
19843;BME280;10082;51.038;6.992;2022-12-29T09:08:45;112171.53;;;-144.33;100.00
19843;BME280;10082;51.038;6.992;2022-12-29T09:11:16;112171.53;;;-144.33;100.00
19843;BME280;10082;51.038;6.992;2022-12-29T09:13:44;112171.53;;;-144.33;100.00
19843;BME280;10082;51.038;6.992;2022-12-29T09:16:11;112171.53;;;-144.33;100.00
19843;BME280;10082;51.038;6.992;2022-12-29T09:18:39;112171.53;;;-144.33;100.00
19843;BME280;10082;51.038;6.992;2022-12-29T09:21:07;112171.53;;;-144.33;100.00
19843;BME280;10082;51.038;6.992;2022-12-29T09:23:34;112171.53;;;-144.33;100.00
19843;BME280;10082;51.038;6.992;2022-12-29T09:26:02;112171.53;;;-144.33;100.00
19843;BME280;10082;51.038;6.992;2022-12-29T09:28:31;112171.53;;;-144.33;100.00
19843;BME280;10082;51.038;6.992;2022-12-29T09:30:58;112171.53;;;-144.33;100.00
19843;BME280;10082;51.038;6.992;2022-12-29T09:33:25;112171.53;;;-144.33;100.00
19843;BME280;10082;51.038;6.992;2022-12-29T09:35:54;112171.53;;;-144.33;100.00
19843;BME280;10082;51.038;6.992;2022-12-29T09:38:21;112171.53;;;-144.33;100.00
19843;BME280;10082;51.038;6.992;2022-12-29T09:40:50;112171.53;;;-144.33;100.00
19843;BME280;10082;51.038;6.992;2022-12-29T09:43:33;112171.53;;;-144.33;100.00
19843;BME280;10082;51.038;6.992;2022-12-29T09:46:16;112171.53;;;-144.33;100.00
19843;BME280;10082;51.038;6.992;2022-12-29T09:48:49;112171.53;;;-144.33;100.00
19843;BME280;10082;51.038;6.992;2022-12-29T09:51:21;112171.53;;;-144.33;100.00
19843;BME280;10082;51.038;6.992;2022-12-29T09:53:53;112171.53;;;-144.33;100.00
19843;BME280;10082;51.038;6.992;2022-12-29T09:56:24;112171.53;;;-144.33;100.00
19843;BME280;10082;51.038;6.992;2022-12-29T09:58:56;112171.53;;;-144.33;100.00
19843;BME280;10082;51.038;6.992;2022-12-29T10:01:29;112171.53;;;-144.33;99.45
19843;BME280;10082;51.038;6.992;2022-12-29T10:03:58;112171.53;;;-144.33;98.93
19843;BME280;10082;51.038;6.992;2022-12-29T10:06:33;112171.53;;;-144.33;97.95
19843;BME280;10082;51.038;6.992;2022-12-29T10:09:13;112171.53;;;-144.33;96.67
19843;BME280;10082;51.038;6.992;2022-12-29T10:11:58;112171.53;;;-144.33;95.62
19843;BME280;10082;51.038;6.992;2022-12-29T10:14:43;112171.53;;;-144.33;95.94
19843;BME280;10082;51.038;6.992;2022-12-29T10:17:25;112171.53;;;-144.33;96.27
19843;BME280;10082;51.038;6.992;2022-12-29T10:20:15;112171.53;;;-144.33;96.42
19843;BME280;10082;51.038;6.992;2022-12-29T10:22:59;112171.53;;;-144.33;95.09
19843;BME280;10082;51.038;6.992;2022-12-29T10:25:34;112171.53;;;-144.33;93.65
19843;BME280;10082;51.038;6.992;2022-12-29T10:28:17;112171.53;;;-144.33;90.30
19843;BME280;10082;51.038;6.992;2022-12-29T10:30:48;112171.53;;;-144.33;88.58
19843;BME280;10082;51.038;6.992;2022-12-29T10:33:20;112171.53;;;-144.33;88.94
19843;BME280;10082;51.038;6.992;2022-12-29T10:35:50;112171.53;;;-144.33;89.84
19843;BME280;10082;51.038;6.992;2022-12-29T10:38:23;112171.53;;;-144.33;90.08
19843;BME280;10082;51.038;6.992;2022-12-29T10:40:56;112171.53;;;-144.33;90.16
19843;BME280;10082;51.038;6.992;2022-12-29T10:43:27;112171.53;;;-144.33;89.54
19843;BME280;10082;51.038;6.992;2022-12-29T10:45:58;112171.53;;;-144.33;89.24
19843;BME280;10082;51.038;6.992;2022-12-29T10:48:30;112171.53;;;-144.33;90.16
19843;BME280;10082;51.038;6.992;2022-12-29T10:50:58;112171.53;;;-144.33;90.88
19843;BME280;10082;51.038;6.992;2022-12-29T10:53:33;112171.53;;;-144.33;91.92
19843;BME280;10082;51.038;6.992;2022-12-29T10:56:04;112171.53;;;-144.33;93.96
19843;BME280;10082;51.038;6.992;2022-12-29T10:58:36;112171.53;;;-144.33;92.83
19843;BME280;10082;51.038;6.992;2022-12-29T11:01:08;112171.53;;;-144.33;91.87
19843;BME280;10082;51.038;6.992;2022-12-29T11:03:50;112171.53;;;-144.33;92.58
19843;BME280;10082;51.038;6.992;2022-12-29T11:06:26;112171.53;;;-144.33;91.97
19843;BME280;10082;51.038;6.992;2022-12-29T11:08:56;112171.53;;;-144.33;92.65
19843;BME280;10082;51.038;6.992;2022-12-29T11:11:26;112171.53;;;-144.33;93.57
19843;BME280;10082;51.038;6.992;2022-12-29T11:14:02;112171.53;;;-144.33;93.63
19843;BME280;10082;51.038;6.992;2022-12-29T11:16:33;112171.53;;;-144.33;95.73
19843;BME280;10082;51.038;6.992;2022-12-29T11:19:02;112171.53;;;-144.33;96.44
19843;BME280;10082;51.038;6.992;2022-12-29T11:21:34;112171.53;;;-144.33;96.23
19843;BME280;10082;51.038;6.992;2022-12-29T11:24:19;112171.53;;;-144.33;96.83
19843;BME280;10082;51.038;6.992;2022-12-29T11:26:46;112171.53;;;-144.33;97.21
19843;BME280;10082;51.038;6.992;2022-12-29T11:29:24;112171.53;;;-144.33;96.96
19843;BME280;10082;51.038;6.992;2022-12-29T11:31:54;112171.53;;;-144.33;96.29
19843;BME280;10082;51.038;6.992;2022-12-29T11:34:24;112171.53;;;-144.33;96.05
19843;BME280;10082;51.038;6.992;2022-12-29T11:36:54;112171.53;;;-144.33;95.49
19843;BME280;10082;51.038;6.992;2022-12-29T11:39:32;112171.53;;;-144.33;94.81
19843;BME280;10082;51.038;6.992;2022-12-29T11:42:00;112171.53;;;-144.33;94.18
19843;BME280;10082;51.038;6.992;2022-12-29T11:44:35;112171.53;;;-144.33;95.55
19843;BME280;10082;51.038;6.992;2022-12-29T11:47:06;112171.53;;;-144.33;96.23
19843;BME280;10082;51.038;6.992;2022-12-29T11:49:35;112171.53;;;-144.33;96.54
19843;BME280;10082;51.038;6.992;2022-12-29T11:52:02;112171.53;;;-144.33;97.44
19843;BME280;10082;51.038;6.992;2022-12-29T11:54:32;112171.53;;;-144.33;97.30
19843;BME280;10082;51.038;6.992;2022-12-29T11:57:09;112171.53;;;-144.33;97.74
19843;BME280;10082;51.038;6.992;2022-12-29T11:59:43;112171.53;;;-144.33;97.37
19843;BME280;10082;51.038;6.992;2022-12-29T12:02:24;112171.53;;;-144.33;98.32
19843;BME280;10082;51.038;6.992;2022-12-29T12:04:57;112171.53;;;-144.33;98.80
19843;BME280;10082;51.038;6.992;2022-12-29T12:07:37;112171.53;;;-144.33;98.13
19843;BME280;10082;51.038;6.992;2022-12-29T12:10:13;112171.53;;;-144.33;98.60
19843;BME280;10082;51.038;6.992;2022-12-29T12:12:48;112171.53;;;-144.33;98.98
19843;BME280;10082;51.038;6.992;2022-12-29T12:15:20;112171.53;;;-144.33;98.68
19843;BME280;10082;51.038;6.992;2022-12-29T12:18:00;112171.53;;;-144.33;100.00
19843;BME280;10082;51.038;6.992;2022-12-29T12:20:38;112171.53;;;-144.33;99.48
19843;BME280;10082;51.038;6.992;2022-12-29T12:23:13;112171.53;;;-144.33;100.00
19843;BME280;10082;51.038;6.992;2022-12-29T12:25:52;112171.53;;;-144.33;100.00
19843;BME280;10082;51.038;6.992;2022-12-29T12:28:28;112171.53;;;-144.33;100.00
19843;BME280;10082;51.038;6.992;2022-12-29T12:31:01;112171.53;;;-144.33;100.00
19843;BME280;10082;51.038;6.992;2022-12-29T12:33:37;112171.53;;;-144.33;100.00
19843;BME280;10082;51.038;6.992;2022-12-29T12:36:25;112171.53;;;-144.33;100.00
19843;BME280;10082;51.038;6.992;2022-12-29T12:39:02;112171.53;;;-144.33;100.00
19843;BME280;10082;51.038;6.992;2022-12-29T12:41:44;112171.53;;;-144.33;100.00
19843;BME280;10082;51.038;6.992;2022-12-29T12:44:20;112171.53;;;-144.33;100.00
19843;BME280;10082;51.038;6.992;2022-12-29T12:47:16;112171.53;;;-144.33;100.00
19843;BME280;10082;51.038;6.992;2022-12-29T12:50:16;112171.53;;;-144.33;100.00
19843;BME280;10082;51.038;6.992;2022-12-29T12:55:56;112171.53;;;-144.33;100.00